Time;durP1;ratioP1;P1;durP2;ratioP2;P2;SDS_P1;SDS_P2;PMS_P1;PMS_P2;Temp;Humidity;BMP_temperature;BMP_pressure;BME280_temperature;BME280_humidity;BME280_pressure;Samples;Min_cycle;Max_cycle;Signal;HPM_P1;HPM_P2
2022/09/16 00:00:56;;;;;;;4.77;1.37;;;12.90;99.90;;;;;;5119253;28;20456;-69
2022/09/16 00:03:23;;;;;;;2.60;1.60;;;12.90;99.90;;;;;;5118574;28;20463;-69
2022/09/16 00:05:53;;;;;;;2.90;1.23;;;12.90;99.90;;;;;;5117859;28;20523;-69
2022/09/16 00:08:21;;;;;;;3.47;1.83;;;12.80;99.90;;;;;;5118911;28;20453;-69
2022/09/16 00:10:49;;;;;;;3.53;1.60;;;12.80;99.90;;;;;;5118776;28;20960;-69
2022/09/16 00:13:16;;;;;;;4.33;1.50;;;12.80;99.90;;;;;;5119495;28;20810;-69
2022/09/16 00:15:44;;;;;;;4.13;1.23;;;12.80;99.90;;;;;;5119521;28;20448;-69
2022/09/16 00:18:11;;;;;;;1.83;1.20;;;12.70;99.90;;;;;;5119355;28;20453;-69
2022/09/16 00:20:43;;;;;;;2.43;1.20;;;12.70;99.90;;;;;;5118826;28;20544;-69
2022/09/16 00:23:11;;;;;;;5.50;1.97;;;12.70;99.90;;;;;;5119378;28;20444;-69
2022/09/16 00:25:38;;;;;;;3.73;1.20;;;12.70;99.90;;;;;;5122763;28;20479;-69
2022/09/16 00:28:05;;;;;;;5.47;1.40;;;12.70;99.90;;;;;;5123230;28;20550;-69
2022/09/16 00:30:32;;;;;;;1.83;1.30;;;12.60;99.90;;;;;;5122002;28;20841;-69
2022/09/16 00:32:59;;;;;;;1.83;1.10;;;12.60;99.90;;;;;;5122454;28;20474;-69
2022/09/16 00:35:29;;;;;;;2.43;1.10;;;12.60;99.90;;;;;;5122827;28;20524;-69
2022/09/16 00:37:55;;;;;;;2.00;1.10;;;12.60;99.90;;;;;;5121772;28;20539;-69
2022/09/16 00:40:24;;;;;;;2.87;1.00;;;12.60;99.90;;;;;;5120304;28;20807;-69
2022/09/16 00:42:51;;;;;;;3.60;1.37;;;12.60;99.90;;;;;;5121094;28;20467;-69
2022/09/16 00:45:19;;;;;;;2.80;1.40;;;12.60;99.90;;;;;;5122854;28;20456;-69
2022/09/16 00:47:50;;;;;;;6.73;1.47;;;12.60;99.90;;;;;;5120372;28;20459;-69
2022/09/16 00:50:21;;;;;;;2.40;1.30;;;12.60;99.90;;;;;;5122190;28;20516;-69
2022/09/16 00:52:50;;;;;;;3.00;1.80;;;12.50;99.90;;;;;;5122656;28;20964;-69
2022/09/16 00:55:23;;;;;;;2.23;1.50;;;12.50;99.90;;;;;;5122884;28;20488;-69
2022/09/16 00:57:53;;;;;;;3.33;1.80;;;12.50;99.90;;;;;;5122181;28;20766;-69
2022/09/16 01:00:20;;;;;;;4.37;1.73;;;12.50;99.90;;;;;;5123055;28;20539;-69
2022/09/16 01:02:48;;;;;;;2.17;1.50;;;12.50;99.90;;;;;;5123497;28;20543;-69
2022/09/16 01:05:20;;;;;;;2.83;1.63;;;12.40;99.90;;;;;;5120583;28;20543;-69
2022/09/16 01:07:49;;;;;;;1.93;1.23;;;12.40;99.90;;;;;;5121225;28;20490;-69
2022/09/16 01:10:20;;;;;;;4.20;1.90;;;12.40;99.90;;;;;;5121867;28;20827;-69
2022/09/16 01:12:54;;;;;;;4.43;1.73;;;12.40;99.90;;;;;;5120855;28;20535;-69
2022/09/16 01:15:23;;;;;;;5.20;1.70;;;12.40;99.90;;;;;;5120328;28;20539;-69
2022/09/16 01:18:03;;;;;;;3.47;1.60;;;12.30;99.90;;;;;;5120306;28;20476;-69
2022/09/16 01:20:59;;;;;;;2.03;1.30;;;12.30;99.90;;;;;;5121511;28;20432;-69
2022/09/16 01:24:16;;;;;;;3.63;1.43;;;12.30;99.90;;;;;;5119354;28;20907;-69
2022/09/16 01:27:07;;;;;;;6.40;1.90;;;12.30;99.90;;;;;;5120360;28;20483;-69
2022/09/16 01:30:00;;;;;;;5.33;1.80;;;12.30;99.90;;;;;;5120630;28;20483;-69
2022/09/16 01:32:39;;;;;;;3.07;1.30;;;12.20;99.90;;;;;;5108545;28;20946;-69
2022/09/16 01:35:14;;;;;;;3.10;1.63;;;12.20;99.90;;;;;;5120991;28;20479;-69
2022/09/16 01:37:52;;;;;;;3.77;1.63;;;12.20;99.90;;;;;;5121601;28;20459;-69
2022/09/16 01:40:27;;;;;;;6.90;2.13;;;12.20;99.90;;;;;;5120958;28;20437;-69
2022/09/16 01:43:01;;;;;;;5.83;1.80;;;12.10;99.90;;;;;;5121325;28;20448;-69
2022/09/16 01:45:36;;;;;;;2.07;1.40;;;12.10;99.90;;;;;;5123075;28;20437;-69
2022/09/16 01:48:12;;;;;;;3.50;1.43;;;12.10;99.90;;;;;;5121209;28;20515;-69
2022/09/16 01:50:44;;;;;;;6.20;1.40;;;12.10;99.90;;;;;;5121989;28;20539;-69
2022/09/16 01:53:16;;;;;;;4.70;1.40;;;12.10;99.90;;;;;;5120802;28;20452;-69
2022/09/16 01:55:50;;;;;;;2.23;1.37;;;12.10;99.90;;;;;;5119475;28;20437;-69
2022/09/16 01:58:23;;;;;;;2.37;1.60;;;12.10;99.90;;;;;;5119966;28;20515;-68
2022/09/16 02:00:55;;;;;;;6.20;1.73;;;12.10;99.90;;;;;;5119763;28;20509;-69
2022/09/16 02:03:25;;;;;;;5.40;1.87;;;12.00;99.90;;;;;;5120070;28;20455;-69
2022/09/16 02:05:57;;;;;;;3.23;1.60;;;12.00;99.90;;;;;;5120463;28;20440;-69
2022/09/16 02:08:29;;;;;;;4.10;2.00;;;12.00;99.90;;;;;;5119431;28;20451;-69
2022/09/16 02:10:59;;;;;;;2.83;1.60;;;12.00;99.90;;;;;;5119663;28;20481;-69
2022/09/16 02:13:30;;;;;;;2.13;1.50;;;12.00;99.90;;;;;;5121138;28;20460;-69
2022/09/16 02:16:03;;;;;;;5.13;2.07;;;12.00;99.90;;;;;;5121755;28;20455;-69
2022/09/16 02:18:35;;;;;;;2.57;2.20;;;11.90;99.90;;;;;;5120754;28;20529;-69
2022/09/16 02:21:05;;;;;;;3.93;2.07;;;11.90;99.90;;;;;;5120582;28;20445;-69
2022/09/16 02:23:38;;;;;;;3.77;2.63;;;11.90;99.90;;;;;;5122194;28;20502;-69
2022/09/16 02:26:08;;;;;;;6.43;2.20;;;11.90;99.90;;;;;;5122471;28;20834;-69
2022/09/16 02:28:39;;;;;;;3.73;1.80;;;11.90;99.90;;;;;;5121098;28;20484;-69
2022/09/16 02:31:08;;;;;;;8.37;2.10;;;11.90;99.90;;;;;;5117270;28;20445;-69
2022/09/16 02:33:41;;;;;;;7.63;2.20;;;11.80;99.90;;;;;;5116509;28;20559;-68
2022/09/16 02:36:11;;;;;;;11.33;2.30;;;11.80;99.90;;;;;;5116386;28;20510;-68
2022/09/16 02:38:46;;;;;;;4.93;2.00;;;11.80;99.90;;;;;;5116331;28;20490;-68
2022/09/16 02:41:14;;;;;;;3.20;2.53;;;11.80;99.90;;;;;;5116189;28;20523;-68
2022/09/16 02:43:42;;;;;;;5.17;2.40;;;11.80;99.90;;;;;;5116217;28;20457;-68
2022/09/16 02:46:15;;;;;;;6.20;2.20;;;11.80;99.90;;;;;;5116198;28;20512;-69
2022/09/16 02:48:54;;;;;;;8.13;2.40;;;11.80;99.90;;;;;;5115239;28;20441;-68
2022/09/16 02:51:32;;;;;;;6.43;2.43;;;11.80;99.90;;;;;;5115859;28;20592;-68
2022/09/16 02:54:05;;;;;;;3.97;2.47;;;11.80;99.90;;;;;;5115591;28;20443;-67
2022/09/16 02:56:35;;;;;;;2.70;2.37;;;11.80;99.90;;;;;;5115597;28;20528;-68
2022/09/16 02:59:04;;;;;;;10.67;2.57;;;11.70;99.90;;;;;;5115349;28;20457;-67
2022/09/16 03:01:36;;;;;;;7.00;2.87;;;11.70;99.90;;;;;;5115711;28;20571;-69
2022/09/16 03:04:05;;;;;;;4.63;3.00;;;11.70;99.90;;;;;;5115480;28;20790;-69
2022/09/16 03:06:34;;;;;;;6.20;2.57;;;11.70;99.90;;;;;;5115232;28;20487;-67
2022/09/16 03:09:04;;;;;;;4.57;2.23;;;11.70;99.90;;;;;;5114864;28;20928;-68
2022/09/16 03:11:57;;;;;;;3.30;2.23;;;11.70;99.90;;;;;;5115122;28;20948;-68
2022/09/16 03:14:44;;;;;;;10.67;2.70;;;11.70;99.90;;;;;;5115225;28;20441;-68
2022/09/16 03:17:26;;;;;;;8.07;3.50;;;11.70;99.90;;;;;;5115061;28;20443;-68
2022/09/16 03:20:01;;;;;;;7.60;3.10;;;11.70;99.90;;;;;;5115140;28;21002;-69
2022/09/16 03:22:41;;;;;;;5.17;3.40;;;11.70;99.90;;;;;;5115241;28;20548;-69
2022/09/16 03:25:23;;;;;;;6.03;3.10;;;11.70;99.90;;;;;;5115309;28;20432;-68
2022/09/16 03:27:53;;;;;;;5.90;3.07;;;11.70;99.90;;;;;;5115068;28;20471;-68
2022/09/16 03:30:20;;;;;;;6.33;3.07;;;11.70;99.90;;;;;;5115315;28;20452;-69
2022/09/16 03:32:56;;;;;;;5.70;3.10;;;11.70;99.90;;;;;;5115885;28;20547;-68
2022/09/16 03:35:29;;;;;;;4.67;3.43;;;11.60;99.90;;;;;;5115742;28;20436;-69
2022/09/16 03:37:59;;;;;;;7.63;3.27;;;11.60;99.90;;;;;;5115591;28;20940;-69
2022/09/16 03:40:28;;;;;;;6.30;3.40;;;11.60;99.90;;;;;;5116134;28;20483;-68
2022/09/16 03:42:56;;;;;;;6.53;3.80;;;11.70;99.90;;;;;;5119539;28;20787;-69
2022/09/16 03:45:24;;;;;;;6.07;4.30;;;11.70;99.90;;;;;;5121152;28;20503;-69
2022/09/16 03:47:53;;;;;;;10.50;4.50;;;11.60;99.90;;;;;;5121264;28;20478;-69
2022/09/16 03:50:21;;;;;;;5.00;3.97;;;11.60;99.90;;;;;;5119117;28;20452;-68
2022/09/16 03:52:49;;;;;;;8.90;6.10;;;11.60;99.90;;;;;;5120763;28;20535;-68
2022/09/16 03:55:16;;;;;;;11.30;6.57;;;11.60;99.90;;;;;;5115774;28;20470;-68
2022/09/16 03:57:43;;;;;;;6.93;6.23;;;11.60;99.90;;;;;;5115638;28;20483;-68
2022/09/16 04:00:12;;;;;;;7.23;6.63;;;11.60;99.90;;;;;;5119813;28;20531;-68
2022/09/16 04:02:38;;;;;;;8.43;6.80;;;11.60;99.90;;;;;;5120075;28;20976;-69
2022/09/16 04:05:07;;;;;;;8.17;7.37;;;11.60;99.90;;;;;;5119770;28;20456;-68
2022/09/16 04:07:34;;;;;;;7.80;6.60;;;11.60;99.90;;;;;;5119448;28;20491;-68
2022/09/16 04:10:02;;;;;;;9.33;5.80;;;11.60;99.90;;;;;;5108631;28;20751;-68
2022/09/16 04:12:29;;;;;;;8.23;5.80;;;11.60;99.90;;;;;;5098260;28;20794;-69
2022/09/16 04:14:56;;;;;;;7.07;6.07;;;11.60;99.90;;;;;;5098631;28;20913;-68
2022/09/16 04:17:23;;;;;;;6.67;5.83;;;11.60;99.90;;;;;;5098824;28;20453;-68
2022/09/16 04:19:50;;;;;;;7.33;6.07;;;11.60;99.90;;;;;;5098419;28;20457;-69
2022/09/16 04:22:17;;;;;;;7.50;5.30;;;11.50;99.90;;;;;;5099014;28;20457;-68
2022/09/16 04:24:43;;;;;;;6.70;4.83;;;11.50;99.90;;;;;;5099371;28;20452;-68
2022/09/16 04:27:12;;;;;;;10.00;4.80;;;11.50;99.90;;;;;;5099058;28;20480;-68
2022/09/16 04:29:38;;;;;;;6.60;3.80;;;11.50;99.90;;;;;;5098800;28;20453;-68
2022/09/16 04:32:05;;;;;;;8.20;3.60;;;11.50;99.90;;;;;;5099267;28;20861;-68
2022/09/16 04:34:32;;;;;;;11.93;4.80;;;11.40;99.90;;;;;;5098637;28;20461;-68
2022/09/16 04:36:59;;;;;;;5.57;4.90;;;11.40;99.90;;;;;;5099425;28;20453;-69
2022/09/16 04:39:26;;;;;;;6.60;5.97;;;11.50;99.90;;;;;;5100654;28;20457;-69
2022/09/16 04:41:53;;;;;;;8.20;6.90;;;11.40;99.90;;;;;;5098220;28;20930;-67
2022/09/16 04:44:21;;;;;;;9.47;8.27;;;11.40;99.90;;;;;;5098191;28;20465;-69
2022/09/16 04:46:48;;;;;;;9.80;8.80;;;11.40;99.90;;;;;;5097828;28;20457;-69
2022/09/16 04:49:14;;;;;;;9.07;8.33;;;11.40;99.90;;;;;;5097403;28;20541;-69
2022/09/16 04:51:41;;;;;;;10.07;8.80;;;11.40;99.90;;;;;;5115981;28;20456;-68
2022/09/16 04:54:08;;;;;;;9.50;8.20;;;11.40;99.90;;;;;;5113832;28;20480;-69
2022/09/16 04:56:35;;;;;;;10.70;7.57;;;11.40;99.90;;;;;;5119093;28;20452;-68
2022/09/16 04:59:03;;;;;;;9.70;7.97;;;11.30;99.90;;;;;;5118782;28;20483;-67
2022/09/16 05:01:34;;;;;;;8.93;8.07;;;11.30;99.90;;;;;;5118636;28;20456;-69
2022/09/16 05:04:02;;;;;;;9.73;7.23;;;11.40;99.90;;;;;;5117992;28;20459;-69
2022/09/16 05:06:32;;;;;;;7.00;6.30;;;11.40;99.90;;;;;;5123957;28;20488;-69
2022/09/16 05:08:59;;;;;;;5.43;4.43;;;11.40;99.90;;;;;;5123644;28;20515;-70
2022/09/16 05:11:27;;;;;;;9.07;6.97;;;11.40;99.90;;;;;;5122717;28;20472;-69
2022/09/16 05:13:54;;;;;;;10.70;8.17;;;11.40;99.90;;;;;;5123586;28;20543;-70
2022/09/16 05:16:22;;;;;;;11.27;6.03;;;11.40;99.90;;;;;;5124130;28;20461;-69
2022/09/16 05:18:53;;;;;;;8.30;7.57;;;11.40;99.90;;;;;;5123697;28;20520;-70
2022/09/16 05:21:22;;;;;;;9.80;8.50;;;11.40;99.90;;;;;;5124160;28;20472;-70
2022/09/16 05:23:49;;;;;;;9.37;7.00;;;11.40;99.90;;;;;;5122481;28;20463;-68
2022/09/16 05:26:18;;;;;;;7.67;6.60;;;11.40;99.90;;;;;;5125628;28;20849;-68
2022/09/16 05:28:46;;;;;;;11.73;6.03;;;11.40;99.90;;;;;;5124967;28;20512;-69
2022/09/16 05:31:15;;;;;;;8.40;6.53;;;11.50;99.90;;;;;;5126069;28;20476;-69
2022/09/16 05:33:43;;;;;;;7.00;6.30;;;11.50;99.90;;;;;;5123480;28;20515;-69
2022/09/16 05:36:13;;;;;;;7.23;5.97;;;11.60;99.90;;;;;;5124149;28;20452;-69
2022/09/16 05:38:41;;;;;;;11.00;5.17;;;11.60;99.90;;;;;;5122740;28;20473;-70
2022/09/16 05:41:08;;;;;;;7.53;4.33;;;11.60;99.90;;;;;;5121660;28;20830;-69
2022/09/16 05:43:35;;;;;;;6.17;5.47;;;11.60;99.90;;;;;;5122715;28;20456;-69
2022/09/16 05:46:03;;;;;;;8.40;5.40;;;11.60;99.90;;;;;;5120463;28;20462;-68
2022/09/16 05:48:30;;;;;;;5.87;4.90;;;11.60;99.90;;;;;;5121445;28;20476;-68
2022/09/16 05:50:58;;;;;;;8.97;4.90;;;11.60;99.90;;;;;;5123401;28;20512;-69
2022/09/16 05:53:29;;;;;;;5.97;5.10;;;11.60;99.90;;;;;;5123783;28;20452;-69
2022/09/16 05:55:57;;;;;;;6.00;4.60;;;11.60;99.90;;;;;;5124262;28;20500;-69
2022/09/16 05:58:25;;;;;;;7.00;5.40;;;11.60;99.90;;;;;;5124567;28;20486;-68
2022/09/16 06:00:52;;;;;;;4.93;4.13;;;11.70;99.90;;;;;;5122717;28;20937;-69
2022/09/16 06:03:20;;;;;;;11.60;4.77;;;11.70;99.90;;;;;;5123226;28;20531;-68
2022/09/16 06:05:46;;;;;;;7.17;3.77;;;11.70;99.90;;;;;;5122165;28;20457;-69
2022/09/16 06:08:13;;;;;;;7.13;4.53;;;11.70;99.90;;;;;;5122642;28;20491;-69
2022/09/16 06:10:42;;;;;;;5.53;3.90;;;11.70;99.90;;;;;;5123636;28;20495;-69
2022/09/16 06:13:08;;;;;;;10.10;4.80;;;11.70;99.90;;;;;;5124238;28;20483;-69
2022/09/16 06:15:35;;;;;;;6.40;4.23;;;11.70;99.90;;;;;;5123680;28;20552;-69
2022/09/16 06:18:02;;;;;;;4.87;4.37;;;11.80;99.90;;;;;;5124847;28;20552;-69
2022/09/16 06:20:29;;;;;;;10.50;4.33;;;11.90;99.90;;;;;;5123225;28;20485;-69
2022/09/16 06:22:56;;;;;;;7.60;3.80;;;11.90;99.90;;;;;;5121309;28;20532;-69
2022/09/16 06:25:23;;;;;;;4.47;3.67;;;11.90;99.90;;;;;;5120192;28;20452;-69
2022/09/16 06:27:52;;;;;;;6.60;5.03;;;12.00;99.90;;;;;;5120464;28;20448;-68
2022/09/16 06:30:18;;;;;;;10.37;4.53;;;12.10;99.90;;;;;;5116678;28;20906;-70
2022/09/16 06:32:45;;;;;;;8.77;4.10;;;12.10;99.90;;;;;;5100355;28;20541;-68
2022/09/16 06:35:12;;;;;;;9.10;4.63;;;12.10;99.90;;;;;;5102062;28;20634;-68
2022/09/16 06:37:39;;;;;;;6.63;4.57;;;12.10;99.90;;;;;;5098993;28;20569;-68
2022/09/16 06:40:07;;;;;;;6.10;4.20;;;12.10;99.90;;;;;;5099860;28;20565;-69
2022/09/16 06:42:34;;;;;;;5.60;3.03;;;12.10;99.90;;;;;;5101381;28;20457;-69
2022/09/16 06:45:03;;;;;;;5.57;3.03;;;12.10;99.90;;;;;;5101135;28;20530;-69
2022/09/16 06:47:32;;;;;;;4.43;2.80;;;12.10;99.90;;;;;;5100757;28;20446;-69
2022/09/16 06:49:59;;;;;;;7.60;3.30;;;12.10;99.90;;;;;;5100645;28;20450;-69
2022/09/16 06:52:26;;;;;;;5.20;2.87;;;12.10;99.90;;;;;;5102808;28;20453;-69
2022/09/16 06:54:53;;;;;;;4.67;2.60;;;12.10;99.90;;;;;;5120552;28;20481;-69
2022/09/16 06:57:22;;;;;;;2.53;2.33;;;12.20;99.90;;;;;;5124489;28;20491;-69
2022/09/16 06:59:48;;;;;;;7.43;3.20;;;12.30;99.90;;;;;;5123531;28;20452;-70
2022/09/16 07:02:17;;;;;;;4.33;2.60;;;12.40;99.90;;;;;;5123079;28;20543;-69
2022/09/16 07:04:44;;;;;;;4.63;2.70;;;12.50;99.90;;;;;;5121262;28;20491;-69
2022/09/16 07:07:11;;;;;;;10.57;4.27;;;12.60;99.90;;;;;;5119843;28;20464;-69
2022/09/16 07:09:38;;;;;;;5.67;2.80;;;12.70;99.90;;;;;;5119858;28;20982;-69
2022/09/16 07:12:05;;;;;;;6.80;2.53;;;12.70;99.90;;;;;;5119770;28;20520;-69
2022/09/16 07:14:32;;;;;;;3.10;2.00;;;12.70;99.90;;;;;;5120700;28;20484;-69
2022/09/16 07:16:59;;;;;;;4.90;2.53;;;12.70;99.90;;;;;;5119230;28;20528;-69
2022/09/16 07:19:27;;;;;;;4.30;2.33;;;12.70;99.90;;;;;;5120086;28;20812;-69
2022/09/16 07:21:54;;;;;;;7.80;2.50;;;12.80;99.90;;;;;;5120128;28;20528;-69
2022/09/16 07:24:21;;;;;;;3.80;2.23;;;12.80;99.90;;;;;;5121312;28;20483;-69
2022/09/16 07:26:48;;;;;;;3.20;2.40;;;12.90;99.90;;;;;;5119448;28;20513;-69
2022/09/16 07:29:17;;;;;;;8.53;2.50;;;12.90;99.90;;;;;;5119222;28;20531;-70
2022/09/16 07:31:44;;;;;;;6.30;2.40;;;12.90;99.90;;;;;;5121500;28;20543;-69
2022/09/16 07:34:12;;;;;;;5.40;2.47;;;12.90;99.90;;;;;;5120731;28;20827;-70
2022/09/16 07:36:42;;;;;;;5.87;1.97;;;13.00;99.90;;;;;;5118199;28;20482;-69
2022/09/16 07:39:10;;;;;;;3.87;1.80;;;13.00;99.90;;;;;;5121591;28;20524;-69
2022/09/16 07:41:39;;;;;;;3.83;1.50;;;13.00;99.90;;;;;;5120003;28;20543;-69
2022/09/16 07:44:08;;;;;;;3.37;2.03;;;13.00;99.90;;;;;;5119347;28;20536;-69
2022/09/16 07:46:36;;;;;;;2.13;1.50;;;13.10;99.90;;;;;;5120286;28;20584;-68
2022/09/16 07:49:05;;;;;;;5.20;2.10;;;13.20;99.90;;;;;;5120005;28;20451;-69
2022/09/16 07:51:32;;;;;;;3.20;1.60;;;13.20;99.90;;;;;;5119336;28;20514;-70
2022/09/16 07:54:03;;;;;;;4.97;1.40;;;13.30;99.90;;;;;;5118606;28;20521;-69
2022/09/16 07:56:33;;;;;;;3.90;1.57;;;13.30;99.90;;;;;;5119712;28;20585;-70
2022/09/16 07:59:01;;;;;;;3.17;1.20;;;13.40;99.90;;;;;;5118261;28;20587;-70
2022/09/16 08:01:29;;;;;;;2.80;1.70;;;13.50;99.90;;;;;;5118335;28;20543;-69
2022/09/16 08:03:57;;;;;;;4.30;1.30;;;13.60;99.90;;;;;;5118766;28;20529;-68
2022/09/16 08:06:25;;;;;;;4.67;1.90;;;13.70;99.90;;;;;;5122463;28;20457;-68
2022/09/16 08:08:53;;;;;;;4.50;1.33;;;13.80;99.90;;;;;;5120066;28;20778;-69
2022/09/16 08:11:22;;;;;;;3.00;1.67;;;13.90;99.90;;;;;;5120806;28;20527;-68
2022/09/16 08:13:49;;;;;;;3.20;1.70;;;13.90;99.90;;;;;;5117999;28;20456;-69
2022/09/16 08:16:18;;;;;;;4.60;1.13;;;14.00;99.90;;;;;;5119686;28;21050;-68
2022/09/16 08:18:45;;;;;;;2.30;1.23;;;14.10;99.90;;;;;;5119328;28;20576;-70
2022/09/16 08:21:15;;;;;;;4.90;1.90;;;14.10;99.90;;;;;;5119105;28;20855;-69
2022/09/16 08:23:42;;;;;;;3.70;1.23;;;14.20;99.90;;;;;;5119584;28;20535;-71
2022/09/16 08:26:11;;;;;;;3.00;1.30;;;14.20;99.90;;;;;;5119971;28;20456;-69
2022/09/16 08:28:40;;;;;;;4.20;1.27;;;14.30;99.90;;;;;;5117710;28;20453;-69
2022/09/16 08:31:08;;;;;;;3.30;1.50;;;14.30;99.90;;;;;;5118143;28;20790;-69
2022/09/16 08:33:35;;;;;;;3.30;1.30;;;14.30;99.90;;;;;;5120474;28;20516;-69
2022/09/16 08:36:05;;;;;;;2.77;1.27;;;14.30;99.90;;;;;;5121011;28;20468;-69
2022/09/16 08:38:33;;;;;;;2.90;1.30;;;14.30;99.90;;;;;;5118316;28;20974;-69
2022/09/16 08:41:07;;;;;;;4.67;1.30;;;14.30;99.90;;;;;;5117144;28;20456;-68
2022/09/16 08:43:39;;;;;;;3.90;1.50;;;14.30;99.90;;;;;;5117690;28;20447;-69
2022/09/16 08:46:17;;;;;;;2.90;1.60;;;14.20;99.90;;;;;;5119950;28;20437;-71
2022/09/16 08:48:53;;;;;;;2.00;1.10;;;14.20;99.90;;;;;;5123726;28;20444;-68
2022/09/16 08:51:22;;;;;;;5.70;1.80;;;14.30;99.90;;;;;;5121312;28;20534;-69
2022/09/16 08:53:54;;;;;;;2.33;1.20;;;14.40;99.90;;;;;;5121115;28;20458;-69
2022/09/16 08:56:24;;;;;;;4.00;1.50;;;14.40;99.90;;;;;;5123409;28;20535;-69
2022/09/16 08:58:54;;;;;;;3.43;1.10;;;14.50;99.90;;;;;;5120871;28;20567;-69
2022/09/16 09:01:29;;;;;;;7.50;1.67;;;14.40;99.90;;;;;;5121343;28;20433;-69
2022/09/16 09:03:57;;;;;;;3.37;1.20;;;14.40;99.90;;;;;;5120943;28;20516;-70
2022/09/16 09:06:49;;;;;;;4.23;1.30;;;14.50;99.90;;;;;;5122175;28;20445;-69
2022/09/16 09:09:30;;;;;;;3.60;1.20;;;14.60;99.90;;;;;;5121962;28;20461;-70
2022/09/16 09:12:03;;;;;;;3.67;1.50;;;14.60;99.90;;;;;;5121595;28;20497;-69
2022/09/16 09:14:37;;;;;;;5.50;1.27;;;14.70;99.90;;;;;;5120554;28;20940;-69
2022/09/16 09:17:17;;;;;;;3.53;1.33;;;14.80;99.90;;;;;;5117652;28;20447;-68
2022/09/16 09:19:59;;;;;;;4.33;1.50;;;14.80;99.90;;;;;;5117985;28;20474;-69
2022/09/16 09:22:38;;;;;;;2.50;1.20;;;14.90;99.90;;;;;;5118194;28;20436;-69
2022/09/16 09:25:21;;;;;;;2.90;0.90;;;15.10;99.90;;;;;;5117981;28;20446;-69
2022/09/16 09:27:59;;;;;;;3.70;1.30;;;15.20;99.90;;;;;;5118400;28;20892;-70
2022/09/16 09:30:27;;;;;;;3.87;1.77;;;15.10;99.90;;;;;;5117127;28;20437;-70
2022/09/16 09:33:11;;;;;;;3.97;1.20;;;15.20;99.90;;;;;;5117247;28;20457;-69
2022/09/16 09:35:52;;;;;;;2.87;1.13;;;15.30;99.90;;;;;;5117080;28;20889;-69
2022/09/16 09:38:43;;;;;;;5.43;1.50;;;15.40;99.90;;;;;;5117311;28;20451;-68
2022/09/16 09:41:12;;;;;;;10.20;1.40;;;15.50;99.90;;;;;;5116898;28;20764;-70
2022/09/16 09:43:45;;;;;;;7.23;1.10;;;15.60;99.90;;;;;;5117031;28;20451;-68
2022/09/16 09:46:18;;;;;;;6.93;2.27;;;15.60;99.90;;;;;;5117136;28;20572;-68
2022/09/16 09:48:49;;;;;;;5.17;1.07;;;15.60;99.90;;;;;;5117353;28;20433;-69
2022/09/16 09:51:22;;;;;;;13.40;1.30;;;15.60;99.90;;;;;;5116967;28;20436;-69
2022/09/16 09:53:53;;;;;;;7.30;1.10;;;15.70;99.90;;;;;;5116723;28;20523;-68
2022/09/16 09:56:23;;;;;;;5.57;1.10;;;15.80;99.90;;;;;;5116198;28;20523;-69
2022/09/16 09:58:58;;;;;;;3.20;1.20;;;15.80;99.90;;;;;;5116823;28;20553;-70
2022/09/16 10:01:25;;;;;;;3.30;1.20;;;15.80;99.90;;;;;;5116845;28;20531;-68
2022/09/16 10:03:56;;;;;;;4.07;1.03;;;15.80;99.90;;;;;;5116870;28;20463;-68
2022/09/16 10:06:28;;;;;;;6.33;1.23;;;15.80;99.90;;;;;;5116534;28;20441;-68
2022/09/16 10:08:57;;;;;;;7.43;1.23;;;15.80;99.90;;;;;;5116669;28;20500;-69
2022/09/16 10:11:27;;;;;;;6.60;1.30;;;15.90;99.90;;;;;;5116284;28;20484;-68
2022/09/16 10:13:56;;;;;;;4.90;1.37;;;16.00;99.90;;;;;;5116368;28;20834;-68
2022/09/16 10:16:28;;;;;;;6.43;1.10;;;15.90;99.90;;;;;;5116486;28;20503;-69
2022/09/16 10:19:02;;;;;;;9.37;1.60;;;16.10;99.90;;;;;;5116682;28;20560;-68
2022/09/16 10:21:44;;;;;;;5.17;1.07;;;16.10;99.90;;;;;;5116676;28;20436;-68
2022/09/16 10:24:33;;;;;;;5.30;1.63;;;16.30;99.90;;;;;;5117600;27;20445;-69
2022/09/16 10:27:01;;;;;;;4.17;0.90;;;16.20;99.90;;;;;;5116219;28;20805;-68
2022/09/16 10:29:29;;;;;;;6.77;1.10;;;16.20;99.90;;;;;;5116249;28;20453;-68
2022/09/16 10:31:58;;;;;;;4.23;1.13;;;16.10;99.90;;;;;;5115749;28;20929;-68
2022/09/16 10:34:32;;;;;;;4.00;1.17;;;16.10;99.90;;;;;;5117034;28;20477;-68
2022/09/16 10:37:06;;;;;;;7.53;1.10;;;16.20;99.90;;;;;;5116860;28;20781;-68
2022/09/16 10:39:34;;;;;;;5.10;1.63;;;16.20;99.90;;;;;;5116784;28;20475;-68
2022/09/16 10:42:02;;;;;;;5.00;1.30;;;16.30;99.90;;;;;;5116324;28;20476;-68
2022/09/16 10:44:31;;;;;;;6.63;1.60;;;16.30;99.90;;;;;;5115753;28;20452;-68
2022/09/16 10:47:01;;;;;;;3.10;1.20;;;16.20;99.90;;;;;;5115378;28;20799;-68
2022/09/16 10:49:37;;;;;;;5.20;1.20;;;16.10;99.90;;;;;;5115451;28;20977;-68
2022/09/16 10:52:16;;;;;;;5.57;1.10;;;16.10;99.90;;;;;;5115549;28;20446;-68
2022/09/16 10:54:44;;;;;;;4.00;0.90;;;16.10;99.90;;;;;;5115226;28;20440;-68
2022/09/16 10:57:23;;;;;;;3.37;1.07;;;16.10;99.90;;;;;;5114863;28;20989;-68
2022/09/16 11:00:03;;;;;;;5.47;0.97;;;16.10;99.90;;;;;;5115468;28;20476;-69
2022/09/16 11:02:55;;;;;;;6.90;1.17;;;16.20;99.90;;;;;;5116661;28;20441;-69
2022/09/16 11:05:32;;;;;;;5.10;1.17;;;16.40;99.90;;;;;;5112694;28;20544;-69
2022/09/16 11:08:06;;;;;;;2.90;1.17;;;16.70;99.90;;;;;;5114483;28;20971;-68
2022/09/16 11:10:43;;;;;;;4.17;1.00;;;16.90;99.90;;;;;;5115007;28;20479;-67
2022/09/16 11:13:34;;;;;;;2.80;0.90;;;17.00;99.90;;;;;;5115440;28;20436;-67
2022/09/16 11:16:12;;;;;;;3.73;1.03;;;16.90;99.90;;;;;;5112469;28;20819;-68
2022/09/16 11:18:50;;;;;;;5.40;1.87;;;17.00;99.90;;;;;;5115052;28;20441;-67
2022/09/16 11:21:43;;;;;;;5.90;1.10;;;16.90;99.90;;;;;;5114597;28;20448;-67
2022/09/16 11:24:26;;;;;;;5.60;1.30;;;16.70;99.90;;;;;;5118099;28;20450;-67
2022/09/16 11:27:04;;;;;;;5.97;0.90;;;16.60;99.90;;;;;;5116064;28;20443;-69
2022/09/16 11:30:01;;;;;;;3.63;1.00;;;16.70;99.90;;;;;;5115223;28;20471;-68
2022/09/16 11:32:40;;;;;;;3.23;1.00;;;17.10;99.90;;;;;;5115437;28;20448;-69
2022/09/16 11:35:40;;;;;;;2.23;0.90;;;17.70;99.90;;;;;;5114898;28;20546;-69
2022/09/16 11:38:17;;;;;;;5.23;1.10;;;18.20;99.90;;;;;;5114783;28;20523;-68
2022/09/16 11:40:48;;;;;;;4.40;1.10;;;18.30;99.90;;;;;;5115274;28;20496;-68
2022/09/16 11:43:50;;;;;;;4.23;1.20;;;18.20;99.90;;;;;;5114882;28;20440;-69
2022/09/16 11:46:23;;;;;;;7.33;1.13;;;18.10;99.90;;;;;;5115079;28;20452;-68
2022/09/16 11:49:18;;;;;;;5.93;0.90;;;18.30;99.90;;;;;;5115055;28;20449;-68
2022/09/16 11:52:00;;;;;;;3.60;1.00;;;19.00;99.90;;;;;;5032710;28;20860;-68
2022/09/16 11:54:47;;;;;;;2.07;1.10;;;19.70;99.90;;;;;;5032465;28;20927;-68
2022/09/16 11:57:18;;;;;;;3.93;0.90;;;20.40;99.90;;;;;;5032246;28;20460;-67
2022/09/16 11:59:51;;;;;;;3.97;1.10;;;20.70;96.00;;;;;;5032467;28;20468;-69
2022/09/16 12:02:27;;;;;;;3.13;0.80;;;20.60;95.20;;;;;;5032299;28;20925;-67
2022/09/16 12:04:59;;;;;;;3.33;0.90;;;20.70;93.40;;;;;;5032312;28;20896;-68
2022/09/16 12:07:32;;;;;;;2.90;0.90;;;20.80;92.30;;;;;;5032199;28;20450;-68
2022/09/16 12:10:04;;;;;;;4.80;1.00;;;20.70;93.60;;;;;;5032406;28;20883;-68
2022/09/16 12:12:37;;;;;;;4.50;1.17;;;20.20;92.80;;;;;;5032984;28;20444;-68
2022/09/16 12:15:15;;;;;;;3.40;1.10;;;20.60;92.20;;;;;;5033007;28;20491;-69
2022/09/16 12:17:50;;;;;;;1.80;0.87;;;21.10;91.80;;;;;;5032347;28;20498;-68
2022/09/16 12:20:20;;;;;;;1.53;0.70;;;22.00;90.40;;;;;;5034173;28;20463;-67
2022/09/16 12:22:53;;;;;;;2.57;0.87;;;22.50;82.70;;;;;;5036063;28;20914;-67
2022/09/16 12:25:26;;;;;;;10.40;0.93;;;22.30;76.40;;;;;;5035888;28;20842;-68
2022/09/16 12:27:59;;;;;;;3.30;1.10;;;21.90;75.90;;;;;;5048953;28;20459;-66
2022/09/16 12:30:30;;;;;;;4.80;1.00;;;22.10;71.00;;;;;;5118456;28;20447;-68
2022/09/16 12:33:04;;;;;;;2.63;1.07;;;21.30;70.90;;;;;;5118158;28;20520;-68
2022/09/16 12:35:35;;;;;;;3.80;1.17;;;20.20;74.20;;;;;;5118350;28;20444;-67
2022/09/16 12:38:02;;;;;;;1.53;0.90;;;19.80;73.10;;;;;;5117928;28;20778;-68
2022/09/16 12:40:36;;;;;;;4.93;1.17;;;20.30;72.60;;;;;;5118157;28;20480;-68
2022/09/16 12:43:23;;;;;;;5.40;0.90;;;21.10;72.90;;;;;;5118300;28;20518;-68
2022/09/16 12:46:17;;;;;;;2.60;0.90;;;21.90;70.10;;;;;;5118062;28;20530;-67
2022/09/16 12:49:02;;;;;;;3.10;1.03;;;22.00;63.70;;;;;;5117996;28;20432;-67
2022/09/16 12:51:51;;;;;;;4.90;1.47;;;22.20;64.30;;;;;;5117406;28;20432;-68
2022/09/16 12:54:50;;;;;;;4.07;0.80;;;21.40;60.80;;;;;;5115016;28;20451;-67
2022/09/16 12:57:33;;;;;;;1.30;0.77;;;20.90;65.70;;;;;;5117907;28;20448;-67
2022/09/16 13:00:14;;;;;;;1.90;0.80;;;21.10;63.30;;;;;;5117934;28;20936;-67
2022/09/16 13:02:45;;;;;;;2.03;0.63;;;21.70;66.30;;;;;;5117106;28;20519;-66
2022/09/16 13:05:18;;;;;;;3.50;0.90;;;22.40;60.60;;;;;;5117378;28;20523;-67
2022/09/16 13:07:50;;;;;;;1.50;0.90;;;22.50;59.00;;;;;;5117478;28;20440;-67
2022/09/16 13:10:20;;;;;;;2.73;0.77;;;21.70;57.40;;;;;;5116684;28;20480;-67